Baden, Canada
Current Conditions -  °F | °C
As of 7:00 PM on Friday 19 Dec 2014 (Local Time) from CYKF Reporting Station
Broken Clouds Broken Clouds  
Wind Chill: 14°   Ceiling: 7000
Heat Index: 23°   Visibility: 9mi
Dew Point: 18°   Wind: 8mph
Humidity: 80%   Direction: 300°WNW
Pressure: 30.24"   Gusts: NA
Location:  43.4°N, 80.67°W
Report Text: CYKF 200000Z AUTO 30007KT 9SM BKN070 M05/M08 A3024 RMK SLP256
Loading
Personal Weather Stations






























Interactive Weather Map New forecast layout! Learn more

10-Day Weather Forecast

Advertisements
Track Severe Weather on mobile